Merion Park, Pennsylvania
Current Conditions -  °F | °C
As of 9:54 AM on Friday 24 Oct 2014 (Local Time) from KPHL Reporting Station
Broken Clouds Broken Clouds  
Wind Chill: 59°   Ceiling: 3800
Heat Index: 59°   Visibility: 10mi
Dew Point: 43°   Wind: 22mph
Humidity: 55%   Direction: 340°NNW
Pressure: 29.89"   Gusts: 29mph
Location:  40.0023°N, 75.2493°W
Report Text: KPHL 241354Z 34019G25KT 10SM BKN038 BKN080 15/06 A2989 RMK AO2 SLP120 T01500061
Loading
Personal Weather Stations






























Interactive Weather Map
Tropical Storm Tracking
New forecast layout! Learn more

10-Day Weather Forecast

Advertisements
Track Severe Weather on mobile